Terminal Aerodrome Forecast
Issued by NWS

Home | Current Version | Previous Version | Text Only | Print | Product List | Glossary Off
Versions: 1 2 3 4 5 6 7 8 9 10 11 12 13 14 15 16 17 18 19

617
FTUS43 KBIS 240723 AAB
TAFDIK
TAF AMD
KDIK 240723Z 2407/2506 20005KT 2SM BR SCT015
     FM241500 02005KT P6SM SCT040
     FM241900 09006KT P6SM SCT100
     FM250500 13011KT P6SM SCT030=

USA.gov is the U.S. government's official web portal to all federal, state and local government web resources and services.